createdAt,value
2019-01-04T00:01:41.191Z,7.67
2019-01-04T00:04:16.547Z,7.67
2019-01-04T00:06:47.838Z,8.03
2019-01-04T00:09:19.196Z,8.37
2019-01-04T00:11:50.695Z,8.73
2019-01-04T00:14:21.935Z,8.30
2019-01-04T00:16:53.118Z,8.13
2019-01-04T00:19:24.511Z,7.73
2019-01-04T00:21:55.853Z,6.67
2019-01-04T00:24:26.972Z,7.37
2019-01-04T00:26:58.094Z,7.90
2019-01-04T00:29:29.329Z,7.43
2019-01-04T00:32:00.663Z,7.90
2019-01-04T00:34:31.811Z,7.50
2019-01-04T00:37:03.081Z,8.10
2019-01-04T00:39:34.327Z,6.93
2019-01-04T00:42:05.529Z,8.83
2019-01-04T00:44:36.763Z,7.97
2019-01-04T00:47:07.998Z,8.03
2019-01-04T00:49:39.259Z,9.30
2019-01-04T00:52:10.534Z,8.60
2019-01-04T00:54:41.727Z,8.07
2019-01-04T00:57:51.290Z,8.87
2019-01-04T01:01:10.646Z,9.37
2019-01-04T01:04:08.322Z,7.37
2019-01-04T01:07:19.292Z,8.87
2019-01-04T01:10:29.527Z,6.33
2019-01-04T01:13:40.614Z,6.37
2019-01-04T01:16:45.725Z,7.17
2019-01-04T01:20:11.366Z,6.73
2019-01-04T01:23:23.816Z,6.40
2019-01-04T01:26:38.203Z,6.73
2019-01-04T01:30:06.796Z,7.50
2019-01-04T01:33:28.626Z,7.87
2019-01-04T01:36:31.338Z,6.73
2019-01-04T01:39:44.896Z,6.87
2019-01-04T01:43:09.195Z,7.03
2019-01-04T01:46:27.282Z,7.67
2019-01-04T01:49:32.593Z,6.87
2019-01-04T01:52:18.187Z,6.50
2019-01-04T01:54:49.396Z,7.00
2019-01-04T01:57:20.677Z,7.63
2019-01-04T01:59:51.993Z,7.60
2019-01-04T02:02:23.447Z,9.37
2019-01-04T02:04:54.719Z,7.00
2019-01-04T02:07:25.942Z,7.30
2019-01-04T02:09:59.639Z,7.73
2019-01-04T02:12:32.798Z,7.87
2019-01-04T02:15:04.182Z,5.90
2019-01-04T02:17:37.052Z,7.30
2019-01-04T02:20:08.578Z,6.97
2019-01-04T02:22:39.769Z,6.00
2019-01-04T02:25:10.944Z,6.17
2019-01-04T02:27:42.256Z,6.77
2019-01-04T02:30:13.362Z,6.80
2019-01-04T02:32:44.777Z,6.83
2019-01-04T02:35:16.992Z,5.83
2019-01-04T02:37:48.272Z,6.07
2019-01-04T02:40:20.005Z,5.30
2019-01-04T02:42:51.952Z,5.53
2019-01-04T02:45:24.575Z,4.97
2019-01-04T02:47:55.959Z,5.10
2019-01-04T02:50:27.207Z,5.17
2019-01-04T02:52:59.458Z,5.57
2019-01-04T02:55:30.633Z,5.33
2019-01-04T02:58:01.924Z,6.20
2019-01-04T03:00:33.086Z,7.07
2019-01-04T03:03:04.300Z,7.27
2019-01-04T03:05:35.528Z,8.30
2019-01-04T03:08:06.736Z,6.57
2019-01-04T03:10:37.929Z,5.80
2019-01-04T03:13:09.219Z,5.53
2019-01-04T03:15:40.485Z,4.93
2019-01-04T03:18:11.931Z,5.77
2019-01-04T03:20:43.109Z,5.33
2019-01-04T03:23:14.339Z,5.63
2019-01-04T03:25:45.507Z,5.77
2019-01-04T03:28:20.553Z,4.70
2019-01-04T03:30:54.190Z,4.73
2019-01-04T03:33:24.465Z,5.10
2019-01-04T03:35:55.621Z,4.63
2019-01-04T03:38:26.754Z,5.03
2019-01-04T03:40:57.848Z,4.50
2019-01-04T03:43:28.979Z,4.37
2019-01-04T03:46:00.144Z,4.23
2019-01-04T03:48:31.285Z,5.17
2019-01-04T03:51:02.489Z,3.73
2019-01-04T03:53:33.546Z,3.70
2019-01-04T03:56:05.730Z,3.83
2019-01-04T03:58:36.802Z,3.93
2019-01-04T04:01:07.887Z,4.73
2019-01-04T04:03:38.956Z,3.50
2019-01-04T04:06:10.121Z,4.37
2019-01-04T04:08:41.293Z,4.53
2019-01-04T04:11:12.333Z,4.10
2019-01-04T04:13:43.471Z,4.40
2019-01-04T04:16:14.544Z,4.47
2019-01-04T04:18:45.650Z,3.63
2019-01-04T04:21:16.794Z,4.30
2019-01-04T04:23:48.016Z,3.97
2019-01-04T04:26:19.174Z,4.70
2019-01-04T04:28:50.305Z,4.93
2019-01-04T04:31:21.363Z,5.13
2019-01-04T04:33:52.513Z,5.27
2019-01-04T04:36:23.580Z,5.07
2019-01-04T04:38:54.722Z,5.47
2019-01-04T04:41:25.868Z,3.90
2019-01-04T04:43:57.098Z,5.20
2019-01-04T04:46:28.183Z,4.30
2019-01-04T04:48:59.431Z,4.40
2019-01-04T04:51:30.671Z,4.00
2019-01-04T04:54:01.850Z,4.37
2019-01-04T04:56:32.952Z,3.43
2019-01-04T04:59:04.068Z,4.90
2019-01-04T05:01:35.240Z,4.60
2019-01-04T05:04:06.282Z,4.50
2019-01-04T05:06:38.342Z,5.10
2019-01-04T05:09:09.412Z,4.90
2019-01-04T05:11:40.509Z,4.77
2019-01-04T05:14:11.642Z,4.50
2019-01-04T05:16:42.726Z,5.60
2019-01-04T05:19:13.935Z,4.83
2019-01-04T05:21:45.106Z,5.87
2019-01-04T05:24:16.204Z,5.37
2019-01-04T05:26:47.337Z,4.23
2019-01-04T05:29:19.829Z,5.30
2019-01-04T05:31:50.948Z,4.93
2019-01-04T05:34:22.072Z,5.00
2019-01-04T05:36:53.149Z,4.67
2019-01-04T05:39:24.263Z,5.87
2019-01-04T05:41:55.370Z,6.50
2019-01-04T05:44:26.586Z,7.40
2019-01-04T05:46:57.648Z,6.77
2019-01-04T05:49:28.748Z,7.43
2019-01-04T05:51:59.858Z,6.20
2019-01-04T05:54:30.968Z,6.33
2019-01-04T05:57:02.144Z,6.37
2019-01-04T05:59:33.302Z,7.00
2019-01-04T06:02:04.439Z,6.60
2019-01-04T06:04:35.523Z,7.70
2019-01-04T06:07:06.690Z,7.20
2019-01-04T06:09:37.830Z,8.47
2019-01-04T06:12:08.963Z,9.17
2019-01-04T06:14:40.098Z,8.50
2019-01-04T06:17:11.430Z,18.03
2019-01-04T06:19:42.556Z,13.93
2019-01-04T06:22:13.699Z,18.77
2019-01-04T06:24:44.865Z,22.60
2019-01-04T06:27:17.933Z,19.83
2019-01-04T06:29:49.188Z,17.27
2019-01-04T06:32:20.282Z,21.70
2019-01-04T06:34:52.170Z,14.27
2019-01-04T06:37:23.388Z,15.93
2019-01-04T06:39:54.482Z,37.00
2019-01-04T06:42:25.684Z,28.73
2019-01-04T06:44:56.966Z,21.47
2019-01-04T06:47:28.076Z,14.37
2019-01-04T06:49:59.218Z,12.43
2019-01-04T06:52:30.414Z,13.10
2019-01-04T06:55:46.121Z,11.97
2019-01-04T06:58:17.637Z,13.30
2019-01-04T07:00:48.769Z,27.90
2019-01-04T07:03:19.906Z,15.57
2019-01-04T07:05:51.058Z,18.47
2019-01-04T07:08:22.129Z,19.40
2019-01-04T07:10:53.344Z,13.90
2019-01-04T07:13:24.467Z,14.47
2019-01-04T07:15:55.620Z,16.53
2019-01-04T07:18:26.936Z,14.53
2019-01-04T07:20:58.583Z,14.17
2019-01-04T07:23:30.178Z,15.33
2019-01-04T07:26:01.609Z,17.37
2019-01-04T07:28:32.807Z,15.37
2019-01-04T07:31:04.054Z,24.43
2019-01-04T07:33:35.265Z,21.63
2019-01-04T07:36:06.505Z,18.23
2019-01-04T07:38:37.622Z,18.13
2019-01-04T07:41:08.796Z,13.67
2019-01-04T07:43:39.976Z,13.27
2019-01-04T07:46:11.146Z,14.17
2019-01-04T07:48:42.406Z,11.87
2019-01-04T07:51:13.611Z,12.07
2019-01-04T07:53:45.912Z,12.27
2019-01-04T07:56:17.052Z,14.33
2019-01-04T07:58:48.339Z,13.33
2019-01-04T08:01:19.580Z,13.27
2019-01-04T08:03:50.831Z,16.33
2019-01-04T08:06:22.107Z,15.43
2019-01-04T08:08:53.347Z,12.10
2019-01-04T08:11:24.507Z,12.50
2019-01-04T08:13:55.730Z,14.63
2019-01-04T08:16:27.056Z,10.27
2019-01-04T08:18:58.217Z,9.47
2019-01-04T08:21:29.471Z,8.77
2019-01-04T08:24:01.758Z,8.70
2019-01-04T08:26:32.903Z,8.90
2019-01-04T08:29:04.077Z,9.73
2019-01-04T08:31:35.258Z,8.53
2019-01-04T08:34:06.504Z,7.27
2019-01-04T08:36:37.741Z,8.23
2019-01-04T08:39:08.999Z,7.13
2019-01-04T08:41:40.171Z,8.63
2019-01-04T08:44:11.369Z,8.43
2019-01-04T08:46:42.541Z,8.13
2019-01-04T08:49:13.776Z,8.20
2019-01-04T08:51:44.972Z,8.00
2019-01-04T08:54:16.239Z,9.63
2019-01-04T08:56:47.474Z,61.43
2019-01-04T08:59:18.712Z,56.60
2019-01-04T09:01:49.991Z,28.07
2019-01-04T09:04:21.195Z,16.60
2019-01-04T09:06:52.426Z,11.33
2019-01-04T09:09:23.584Z,11.20
2019-01-04T09:11:54.933Z,9.30
2019-01-04T09:14:26.428Z,13.23
2019-01-04T09:16:57.751Z,8.93
2019-01-04T09:19:29.105Z,9.77
2019-01-04T09:22:00.260Z,8.33
2019-01-04T09:24:31.516Z,8.33
2019-01-04T09:27:02.644Z,8.23
2019-01-04T09:29:33.975Z,5.50
2019-01-04T09:32:05.345Z,5.27
2019-01-04T09:34:36.514Z,4.87
2019-01-04T09:37:07.679Z,6.50
2019-01-04T09:39:38.851Z,11.70
2019-01-04T09:42:15.737Z,10.17
2019-01-04T09:44:47.466Z,8.53
2019-01-04T09:47:18.591Z,6.13
2019-01-04T09:49:49.761Z,6.90
2019-01-04T09:52:20.926Z,5.77
2019-01-04T09:54:52.260Z,8.07
2019-01-04T09:57:23.754Z,5.47
2019-01-04T09:59:55.121Z,6.33
2019-01-04T10:02:26.372Z,5.90
2019-01-04T10:04:58.622Z,4.97
2019-01-04T10:07:29.867Z,5.10
2019-01-04T10:10:00.976Z,5.33
2019-01-04T10:12:32.182Z,6.57
2019-01-04T10:15:03.302Z,6.57
2019-01-04T10:17:34.692Z,6.37
2019-01-04T10:20:06.604Z,18.70
2019-01-04T10:22:37.849Z,13.57
2019-01-04T10:25:09.247Z,17.50
2019-01-04T10:27:40.395Z,14.20
2019-01-04T10:30:26.655Z,20.03
2019-01-04T10:32:57.784Z,21.80
2019-01-04T10:35:28.957Z,21.77
2019-01-04T10:38:00.226Z,15.43
2019-01-04T10:40:31.406Z,15.33
2019-01-04T10:43:02.709Z,14.70
2019-01-04T10:45:34.014Z,12.90
2019-01-04T10:48:05.216Z,16.90
2019-01-04T10:50:36.365Z,16.57
2019-01-04T10:53:07.514Z,16.07
2019-01-04T10:55:38.849Z,10.30
2019-01-04T10:58:09.942Z,14.70
2019-01-04T11:00:41.312Z,11.97
2019-01-04T11:03:12.452Z,13.03
2019-01-04T11:05:43.565Z,17.50
2019-01-04T11:08:14.853Z,23.83
2019-01-04T11:10:46.029Z,21.27
2019-01-04T11:13:17.210Z,13.67
2019-01-04T11:15:48.510Z,25.47
2019-01-04T11:18:19.889Z,13.67
2019-01-04T11:20:51.095Z,14.73
2019-01-04T11:24:00.144Z,17.83
2019-01-04T11:26:43.987Z,32.73
2019-01-04T11:30:02.522Z,26.80
2019-01-04T11:32:56.354Z,24.53
2019-01-04T11:36:13.097Z,13.27
2019-01-04T11:39:21.472Z,11.60
2019-01-04T11:42:29.970Z,12.27
2019-01-04T11:45:32.000Z,10.00
2019-01-04T11:48:47.344Z,9.67
2019-01-04T11:52:14.696Z,7.10
2019-01-04T11:54:45.861Z,7.90
2019-01-04T11:57:17.189Z,7.87
2019-01-04T11:59:48.409Z,7.47
2019-01-04T12:02:19.499Z,7.93
2019-01-04T12:04:50.710Z,8.27
2019-01-04T12:07:21.893Z,7.27
2019-01-04T12:09:53.166Z,10.47
2019-01-04T12:12:24.320Z,10.07
2019-01-04T12:14:55.632Z,9.70
2019-01-04T12:17:26.811Z,9.50
2019-01-04T12:19:58.002Z,9.07
2019-01-04T12:22:30.057Z,9.73
2019-01-04T12:25:01.297Z,12.37
2019-01-04T12:27:32.479Z,9.83
2019-01-04T12:30:03.712Z,10.30
2019-01-04T12:32:34.975Z,10.87
2019-01-04T12:35:06.376Z,9.03
2019-01-04T12:37:37.551Z,9.83
2019-01-04T12:40:09.007Z,9.07
2019-01-04T12:42:40.139Z,9.30
2019-01-04T12:45:11.376Z,10.10
2019-01-04T12:47:42.711Z,10.30
2019-01-04T12:50:13.839Z,9.60
2019-01-04T12:52:44.935Z,10.30
2019-01-04T12:55:16.126Z,11.37
2019-01-04T12:57:47.249Z,10.80
2019-01-04T13:00:18.413Z,11.80
2019-01-04T13:02:50.710Z,11.87
2019-01-04T13:05:22.555Z,10.67
2019-01-04T13:07:53.707Z,11.57
2019-01-04T13:10:25.050Z,12.00
2019-01-04T13:12:56.151Z,12.00
2019-01-04T13:15:27.336Z,11.27
2019-01-04T13:17:58.552Z,12.00
2019-01-04T13:20:29.716Z,11.37
2019-01-04T13:23:00.998Z,12.90
2019-01-04T13:25:33.152Z,13.47
2019-01-04T13:28:04.343Z,12.73
2019-01-04T13:30:35.473Z,12.53
2019-01-04T13:33:06.655Z,14.00
2019-01-04T13:35:37.796Z,14.47
2019-01-04T13:38:08.891Z,14.27
2019-01-04T13:40:41.170Z,16.77
2019-01-04T13:43:12.375Z,16.70
2019-01-04T13:45:43.670Z,20.47
2019-01-04T13:48:14.735Z,20.10
2019-01-04T13:50:45.889Z,18.53
2019-01-04T13:53:16.983Z,19.90
2019-01-04T13:55:48.107Z,18.00
2019-01-04T13:58:19.221Z,19.50
2019-01-04T14:00:50.278Z,17.80
2019-01-04T14:03:21.443Z,19.63
2019-01-04T14:05:52.738Z,17.73
2019-01-04T14:08:23.949Z,18.17
2019-01-04T14:10:55.010Z,21.30
2019-01-04T14:13:26.137Z,18.73
2019-01-04T14:15:57.309Z,20.07
2019-01-04T14:18:28.523Z,19.53
2019-01-04T14:20:59.619Z,21.03
2019-01-04T14:23:30.793Z,19.53
2019-01-04T14:26:02.011Z,21.30
2019-01-04T14:28:33.339Z,20.70
2019-01-04T14:31:04.434Z,19.17
2019-01-04T14:33:35.669Z,19.37
2019-01-04T14:36:07.040Z,18.97
2019-01-04T14:38:38.357Z,19.87
2019-01-04T14:41:09.554Z,20.00
2019-01-04T14:43:40.792Z,17.23
2019-01-04T14:46:12.143Z,18.97
2019-01-04T14:48:43.299Z,18.60
2019-01-04T14:51:14.415Z,22.63
2019-01-04T14:53:45.552Z,22.00
2019-01-04T14:56:18.244Z,17.43
2019-01-04T14:58:49.433Z,19.97
2019-01-04T15:01:20.662Z,18.53
2019-01-04T15:03:51.897Z,17.67
2019-01-04T15:06:23.170Z,18.57
2019-01-04T15:08:54.611Z,17.43
2019-01-04T15:11:26.216Z,15.77
2019-01-04T15:13:57.539Z,16.83
2019-01-04T15:16:28.740Z,16.60
2019-01-04T15:19:00.017Z,16.13
2019-01-04T15:21:31.376Z,16.37
2019-01-04T15:24:02.957Z,17.77
2019-01-04T15:26:34.178Z,18.90
2019-01-04T15:29:05.442Z,17.87
2019-01-04T15:31:36.642Z,17.37
2019-01-04T15:34:08.114Z,20.33
2019-01-04T15:36:39.405Z,19.20
2019-01-04T15:39:10.858Z,17.07
2019-01-04T15:41:42.025Z,16.23
2019-01-04T15:44:13.291Z,16.50
2019-01-04T15:46:44.518Z,15.60
2019-01-04T15:49:15.727Z,16.37
2019-01-04T15:51:47.236Z,16.33
2019-01-04T15:54:18.515Z,28.20
2019-01-04T15:56:49.741Z,20.67
2019-01-04T15:59:20.962Z,21.77
2019-01-04T16:01:52.178Z,18.30
2019-01-04T16:04:23.389Z,25.53
2019-01-04T16:06:54.937Z,17.07
2019-01-04T16:09:26.048Z,16.27
2019-01-04T16:11:57.531Z,16.10
2019-01-04T16:14:28.745Z,14.77
2019-01-04T16:17:00.086Z,15.43
2019-01-04T16:19:31.304Z,13.97
2019-01-04T16:22:02.631Z,14.43
2019-01-04T16:24:33.770Z,13.40
2019-01-04T16:27:05.219Z,13.50
2019-01-04T16:29:36.427Z,12.83
2019-01-04T16:32:07.790Z,13.73
2019-01-04T16:34:39.027Z,11.50
2019-01-04T16:37:10.255Z,13.73
2019-01-04T16:39:41.454Z,12.83
2019-01-04T16:42:12.701Z,13.27
2019-01-04T16:44:43.842Z,13.90
2019-01-04T16:47:15.106Z,34.50
2019-01-04T16:49:46.825Z,19.90
2019-01-04T16:52:18.486Z,19.40
2019-01-04T16:54:50.724Z,15.40
2019-01-04T16:57:22.616Z,14.80
2019-01-04T16:59:54.260Z,16.17
2019-01-04T17:02:28.756Z,17.27
2019-01-04T17:05:00.543Z,16.90
2019-01-04T17:07:32.448Z,17.97
2019-01-04T17:10:08.297Z,15.83
2019-01-04T17:12:39.651Z,15.83
2019-01-04T17:15:11.159Z,15.10
2019-01-04T17:17:42.976Z,15.00
2019-01-04T17:20:14.258Z,17.10
2019-01-04T17:22:45.641Z,17.73
2019-01-04T17:25:16.947Z,13.67
2019-01-04T17:27:48.371Z,11.57
2019-01-04T17:30:19.929Z,13.00
2019-01-04T17:32:51.286Z,11.87
2019-01-04T17:35:22.791Z,11.63
2019-01-04T17:37:58.398Z,11.60
2019-01-04T17:40:29.625Z,11.90
2019-01-04T17:43:00.969Z,10.97
2019-01-04T17:45:33.331Z,12.37
2019-01-04T17:48:05.096Z,13.03
2019-01-04T17:50:36.273Z,11.43
2019-01-04T17:53:07.495Z,11.43
2019-01-04T17:55:38.744Z,12.20
2019-01-04T17:58:11.145Z,11.60
2019-01-04T18:00:43.798Z,12.53
2019-01-04T18:03:15.124Z,13.23
2019-01-04T18:05:46.528Z,13.13
2019-01-04T18:08:18.192Z,12.47
2019-01-04T18:10:49.782Z,11.97
2019-01-04T18:13:21.328Z,15.87
2019-01-04T18:15:52.798Z,15.63
2019-01-04T18:18:24.427Z,13.33
2019-01-04T18:20:55.827Z,15.30
2019-01-04T18:23:27.426Z,13.63
2019-01-04T18:25:58.960Z,15.73
2019-01-04T18:28:30.439Z,11.10
2019-01-04T18:31:01.695Z,14.00
2019-01-04T18:33:34.185Z,13.40
2019-01-04T18:36:05.765Z,12.60
2019-01-04T18:38:37.166Z,12.93
2019-01-04T18:41:08.503Z,13.00
2019-01-04T18:43:39.734Z,13.83
2019-01-04T18:46:10.961Z,12.90
2019-01-04T18:48:42.176Z,13.63
2019-01-04T18:51:14.241Z,13.60
2019-01-04T18:53:45.544Z,14.00
2019-01-04T18:56:16.990Z,14.23
2019-01-04T18:58:48.279Z,15.03
2019-01-04T19:01:19.560Z,15.43
2019-01-04T19:03:50.863Z,16.27
2019-01-04T19:06:22.123Z,15.77
2019-01-04T19:08:53.440Z,15.90
2019-01-04T19:11:24.722Z,16.37
2019-01-04T19:13:57.058Z,16.60
2019-01-04T19:16:32.847Z,15.83
2019-01-04T19:19:04.483Z,14.83
2019-01-04T19:21:35.686Z,16.63
2019-01-04T19:24:07.336Z,14.83
2019-01-04T19:26:38.652Z,16.47
2019-01-04T19:29:10.105Z,16.97
2019-01-04T19:31:42.511Z,14.27
2019-01-04T19:34:13.800Z,15.63
2019-01-04T19:36:44.989Z,15.33
2019-01-04T19:39:16.417Z,15.23
2019-01-04T19:41:47.808Z,19.17
2019-01-04T19:44:19.115Z,15.73
2019-01-04T19:46:50.686Z,19.23
2019-01-04T19:49:22.140Z,17.97
2019-01-04T19:51:53.406Z,16.43
2019-01-04T19:54:24.731Z,17.00
2019-01-04T19:56:57.104Z,18.70
2019-01-04T19:59:31.013Z,19.47
2019-01-04T20:02:03.265Z,15.33
2019-01-04T20:04:34.755Z,17.57
2019-01-04T20:07:59.898Z,15.93
2019-01-04T20:11:47.144Z,16.23
2019-01-04T20:15:17.736Z,17.57
2019-01-04T20:18:09.460Z,19.60
2019-01-04T20:21:18.034Z,17.93
2019-01-04T20:24:13.735Z,14.20
2019-01-04T20:27:14.498Z,18.00
2019-01-04T20:30:07.190Z,15.40
2019-01-04T20:33:01.062Z,16.07
2019-01-04T20:35:49.766Z,16.47
2019-01-04T20:38:39.893Z,17.97
2019-01-04T20:41:29.267Z,16.90
2019-01-04T20:44:18.018Z,16.23
2019-01-04T20:47:20.733Z,16.50
2019-01-04T20:50:26.067Z,16.70
2019-01-04T20:53:34.809Z,15.77
2019-01-04T20:56:23.669Z,16.43
2019-01-04T20:59:12.637Z,14.90
2019-01-04T21:02:05.766Z,17.03
2019-01-04T21:04:59.666Z,16.97
2019-01-04T21:07:48.926Z,15.23
2019-01-04T21:10:42.561Z,17.60
2019-01-04T21:13:34.044Z,14.80
2019-01-04T21:16:23.430Z,16.07
2019-01-04T21:19:15.054Z,15.07
2019-01-04T21:22:51.433Z,15.00
2019-01-04T21:25:54.802Z,14.57
2019-01-04T21:29:01.730Z,15.63
2019-01-04T21:32:01.175Z,13.60
2019-01-04T21:34:50.048Z,16.33
2019-01-04T21:37:40.647Z,15.40
2019-01-04T21:40:33.994Z,13.90
2019-01-04T21:43:22.761Z,15.13
2019-01-04T21:46:18.866Z,15.00
2019-01-04T21:49:27.165Z,15.07
2019-01-04T21:52:17.318Z,13.87
2019-01-04T21:55:06.455Z,16.00
2019-01-04T21:58:08.600Z,15.70
2019-01-04T22:01:07.584Z,14.80
2019-01-04T22:04:16.225Z,14.53
2019-01-04T22:07:05.213Z,15.63
2019-01-04T22:10:04.778Z,14.33
2019-01-04T22:12:48.489Z,14.23
2019-01-04T22:15:37.846Z,15.40
2019-01-04T22:18:26.321Z,14.97
2019-01-04T22:21:16.532Z,14.83
2019-01-04T22:24:05.632Z,13.43
2019-01-04T22:26:55.196Z,16.03
2019-01-04T22:29:51.528Z,16.57
2019-01-04T22:32:41.389Z,16.97
2019-01-04T22:35:30.573Z,16.23
2019-01-04T22:38:32.634Z,16.67
2019-01-04T22:41:21.635Z,16.53
2019-01-04T22:44:10.234Z,17.20
2019-01-04T22:46:54.630Z,16.73
2019-01-04T22:49:44.698Z,17.57
2019-01-04T22:52:41.887Z,19.07
2019-01-04T22:55:33.772Z,18.33
2019-01-04T22:58:34.495Z,18.50
2019-01-04T23:01:31.024Z,19.43
2019-01-04T23:04:30.683Z,19.23
2019-01-04T23:07:20.820Z,18.73
2019-01-04T23:10:09.763Z,18.33
2019-01-04T23:12:56.926Z,18.33
2019-01-04T23:15:45.563Z,16.30
2019-01-04T23:18:38.361Z,33.43
2019-01-04T23:22:04.100Z,28.23
2019-01-04T23:24:52.866Z,26.17
2019-01-04T23:27:38.503Z,22.37
2019-01-04T23:30:28.782Z,31.67
2019-01-04T23:33:24.936Z,20.47
2019-01-04T23:36:13.599Z,17.83
2019-01-04T23:39:10.174Z,19.60
2019-01-04T23:41:59.764Z,15.50
2019-01-04T23:44:51.885Z,16.97
2019-01-04T23:47:40.942Z,17.53
2019-01-04T23:50:34.063Z,17.40
2019-01-04T23:53:22.753Z,16.30
2019-01-04T23:56:10.911Z,16.10
2019-01-04T23:59:13.384Z,15.63
